Time;durP1;ratioP1;P1;durP2;ratioP2;P2;SDS_P1;SDS_P2;PMS_P1;PMS_P2;Temp;Humidity;BMP_temperature;BMP_pressure;BME280_temperature;BME280_humidity;BME280_pressure;Samples;Min_cycle;Max_cycle;Signal;HPM_P1;HPM_P2
2020/12/12 00:01:33;;;;;;;1999.90;999.90;;;1.00;99.90;;;;;;5088434;28;20445;-51
2020/12/12 00:03:59;;;;;;;1999.90;999.90;;;1.00;99.90;;;;;;5095637;28;20266;-51
2020/12/12 00:06:25;;;;;;;1999.90;999.90;;;1.00;99.90;;;;;;5102537;28;20225;-50
2020/12/12 00:08:50;;;;;;;1999.90;999.90;;;1.00;99.90;;;;;;5093177;28;20679;-51
2020/12/12 00:11:19;;;;;;;1999.90;999.90;;;1.00;99.90;;;;;;5092383;28;20195;-50
2020/12/12 00:13:45;;;;;;;1999.90;999.90;;;1.10;99.90;;;;;;5091569;28;20722;-50
2020/12/12 05:44:33;;;;;;;1999.90;999.90;;;1.00;99.90;;;;;;5108858;27;20565;-49
2020/12/12 05:47:01;;;;;;;1999.90;999.90;;;1.00;99.90;;;;;;5106870;28;20852;-48
2020/12/12 05:49:27;;;;;;;1999.90;999.90;;;1.00;99.90;;;;;;5109253;28;20558;-49
2020/12/12 05:51:54;;;;;;;1999.90;999.90;;;1.00;99.90;;;;;;5109803;28;20529;-49
2020/12/12 05:54:22;;;;;;;1999.90;999.90;;;1.10;99.90;;;;;;5109194;28;20264;-48
2020/12/12 05:56:49;;;;;;;1999.90;999.90;;;1.10;99.90;;;;;;5109091;28;20427;-49
2020/12/12 05:59:15;;;;;;;1999.90;999.90;;;1.10;99.90;;;;;;5110114;28;20967;-48
2020/12/12 06:01:45;;;;;;;1999.90;999.90;;;1.10;99.90;;;;;;5097568;28;20519;-46
2020/12/12 06:04:14;;;;;;;1999.90;999.90;;;1.10;99.90;;;;;;5110278;28;20219;-47
2020/12/12 06:06:47;;;;;;;1999.90;999.90;;;1.00;99.90;;;;;;5109585;28;20436;-46
2020/12/12 06:09:15;;;;;;;1999.90;999.90;;;1.00;99.90;;;;;;5109770;28;20443;-47
2020/12/12 06:11:46;;;;;;;1999.90;999.90;;;0.90;99.90;;;;;;5108531;28;20419;-47
2020/12/12 06:14:13;;;;;;;1999.90;999.90;;;0.90;99.90;;;;;;5110525;28;20418;-47
2020/12/12 06:16:39;;;;;;;1999.90;999.90;;;0.90;99.90;;;;;;5109266;28;20420;-47
2020/12/12 06:19:17;;;;;;;1999.90;999.90;;;0.80;99.90;;;;;;5110744;28;20420;-47
2020/12/12 06:21:47;;;;;;;1999.90;999.90;;;0.80;99.90;;;;;;5108716;28;20463;-47
2020/12/12 06:24:15;;;;;;;1999.90;999.90;;;0.80;99.90;;;;;;5109057;28;20467;-47
2020/12/12 06:26:46;;;;;;;1999.90;999.90;;;0.80;99.90;;;;;;5110063;28;20431;-47
2020/12/12 06:29:14;;;;;;;1999.90;999.90;;;0.80;99.90;;;;;;5104881;28;20419;-47
2020/12/12 06:31:42;;;;;;;1999.90;999.90;;;0.80;99.90;;;;;;5108813;28;20518;-47
2020/12/12 06:34:07;;;;;;;1999.90;999.90;;;0.80;99.90;;;;;;5110337;28;20424;-47
2020/12/12 06:36:34;;;;;;;1999.90;999.90;;;0.80;99.90;;;;;;5109045;28;20988;-47
2020/12/12 06:39:18;;;;;;;1999.90;999.90;;;0.70;99.90;;;;;;5108574;28;20436;-47
2020/12/12 06:41:45;;;;;;;1999.90;999.90;;;0.80;99.90;;;;;;5109581;28;20425;-47
2020/12/12 06:44:11;;;;;;;1999.90;999.90;;;0.90;99.90;;;;;;5109730;28;20541;-47
2020/12/12 06:46:55;;;;;;;1999.90;999.90;;;1.00;99.90;;;;;;5110188;28;20428;-47
2020/12/12 06:49:23;;;;;;;1999.90;999.90;;;1.00;99.90;;;;;;5109983;28;20637;-47
2020/12/12 06:51:52;;;;;;;1999.90;999.90;;;1.10;99.90;;;;;;5109486;28;20423;-47
2020/12/12 06:54:18;;;;;;;1999.90;999.90;;;1.20;99.90;;;;;;5105538;28;20431;-47
2020/12/12 06:56:44;;;;;;;1999.90;999.90;;;1.20;99.90;;;;;;5096157;28;20424;-47
2020/12/12 06:59:35;;;;;;;1999.90;999.90;;;1.30;99.90;;;;;;5095978;28;20767;-47
2020/12/12 07:02:09;;;;;;;1999.90;999.90;;;1.30;99.90;;;;;;5095905;28;20235;-47
2020/12/12 07:04:37;;;;;;;1999.90;999.90;;;1.40;99.90;;;;;;5095994;28;20842;-47
2020/12/12 07:07:10;;;;;;;1999.90;999.90;;;1.40;99.90;;;;;;5095863;28;20425;-47
2020/12/12 07:09:40;;;;;;;1999.90;999.90;;;1.40;99.90;;;;;;5096108;28;20380;-47
2020/12/12 07:12:06;;;;;;;1999.90;999.90;;;1.50;99.90;;;;;;5095311;28;20462;-47
2020/12/12 07:14:32;;;;;;;1999.90;999.90;;;1.50;99.90;;;;;;5095065;28;20424;-47
2020/12/12 07:17:00;;;;;;;1999.90;999.90;;;1.50;99.90;;;;;;5095861;28;20920;-47
2020/12/12 07:19:40;;;;;;;1999.90;999.90;;;1.50;99.90;;;;;;5089608;28;20448;-47
2020/12/12 07:22:11;;;;;;;1999.90;999.90;;;1.50;99.90;;;;;;5087050;28;20476;-47
2020/12/12 07:24:37;;;;;;;1999.90;999.90;;;1.50;99.90;;;;;;5085613;28;20509;-47
2020/12/12 07:27:05;;;;;;;1999.90;999.90;;;1.50;99.90;;;;;;5077175;28;20992;-47
2020/12/12 07:29:31;;;;;;;1999.90;999.90;;;1.50;99.90;;;;;;5095499;28;20409;-47
2020/12/12 07:31:58;;;;;;;1999.90;999.90;;;1.50;99.90;;;;;;5096421;28;20482;-47
2020/12/12 07:34:25;;;;;;;1999.90;999.90;;;1.60;99.90;;;;;;5096804;28;20436;-50
2020/12/12 07:37:03;;;;;;;1999.90;999.90;;;1.60;99.90;;;;;;5096506;28;20550;-50
2020/12/12 07:39:49;;;;;;;1999.90;999.90;;;1.70;99.90;;;;;;5094532;28;20411;-50
2020/12/12 07:42:15;;;;;;;1999.90;999.90;;;1.70;99.90;;;;;;5093986;28;20446;-49
2020/12/12 07:44:55;;;;;;;1999.90;999.90;;;1.70;99.90;;;;;;5094678;28;20413;-49
2020/12/12 07:47:21;;;;;;;1999.90;999.90;;;1.70;99.90;;;;;;5081897;28;20440;-49
2020/12/12 07:49:46;;;;;;;1999.90;999.90;;;1.80;99.90;;;;;;5073528;28;20424;-49
2020/12/12 07:52:13;;;;;;;1999.90;999.90;;;1.80;99.90;;;;;;5092133;28;20286;-49
2020/12/12 07:54:47;;;;;;;1999.90;999.90;;;1.90;99.90;;;;;;5091326;28;20207;-50
2020/12/12 07:57:14;;;;;;;1999.90;999.90;;;2.00;99.90;;;;;;5092580;28;20542;-49
2020/12/12 07:59:40;;;;;;;1999.90;999.90;;;2.00;99.90;;;;;;5092080;28;20416;-49
2020/12/12 08:02:07;;;;;;;1999.90;999.90;;;1.90;99.90;;;;;;5089895;28;20429;-49
2020/12/12 08:04:34;;;;;;;1999.90;999.90;;;2.00;99.90;;;;;;5092255;28;21303;-49
2020/12/12 08:07:20;;;;;;;1999.90;999.90;;;2.00;99.90;;;;;;5090707;28;20465;-49
2020/12/12 08:09:51;;;;;;;1999.90;999.90;;;2.10;99.90;;;;;;5082640;28;20468;-49
2020/12/12 08:12:39;;;;;;;1999.90;999.90;;;2.10;99.90;;;;;;5086630;28;20429;-49
2020/12/12 08:15:25;;;;;;;1999.90;999.90;;;2.20;99.90;;;;;;5089400;28;20486;-49
2020/12/12 08:17:50;;;;;;;1999.90;999.90;;;2.30;99.90;;;;;;5088744;28;20498;-49
2020/12/12 08:20:23;;;;;;;1999.90;999.90;;;2.50;99.90;;;;;;5088657;28;20948;-49
2020/12/12 08:22:50;;;;;;;1999.90;999.90;;;2.60;99.90;;;;;;5089751;28;20203;-49
2020/12/12 08:25:17;;;;;;;1999.90;999.90;;;2.60;99.90;;;;;;5091553;28;20417;-50
2020/12/12 08:27:44;;;;;;;1999.90;999.90;;;2.60;99.90;;;;;;5085527;28;20434;-49
2020/12/12 08:30:09;;;;;;;1999.90;999.90;;;2.50;99.90;;;;;;5090186;28;20430;-49
2020/12/12 08:32:39;;;;;;;1999.90;999.90;;;2.50;99.90;;;;;;5091023;28;20441;-49
2020/12/12 08:35:25;;;;;;;1999.90;999.90;;;2.40;99.90;;;;;;5088950;28;20172;-50
2020/12/12 08:38:13;;;;;;;1999.90;999.90;;;2.40;99.90;;;;;;5088103;28;20426;-49
2020/12/12 08:40:47;;;;;;;1999.90;999.90;;;2.30;99.90;;;;;;5091007;28;20467;-50
2020/12/12 08:43:14;;;;;;;1999.90;999.90;;;2.20;99.90;;;;;;5079738;28;20841;-49
2020/12/12 08:45:42;;;;;;;1999.90;999.90;;;2.30;99.90;;;;;;5083204;28;20472;-49
2020/12/12 08:48:15;;;;;;;1999.90;999.90;;;2.30;99.90;;;;;;5079607;28;20426;-49
2020/12/12 08:50:49;;;;;;;1999.90;999.90;;;2.30;99.90;;;;;;5085873;28;20496;-49
2020/12/12 08:53:35;;;;;;;1999.90;999.90;;;2.40;99.90;;;;;;5086458;28;20437;-49
2020/12/12 08:56:09;;;;;;;1999.90;999.90;;;2.40;99.90;;;;;;5088859;28;20425;-49
2020/12/12 08:58:35;;;;;;;1999.90;999.90;;;2.50;99.90;;;;;;5090913;28;20437;-49
2020/12/12 09:01:22;;;;;;;1999.90;999.90;;;2.50;99.90;;;;;;5084857;28;20480;-49
2020/12/12 09:03:55;;;;;;;1999.90;999.90;;;2.40;99.90;;;;;;5080546;28;20481;-49
2020/12/12 09:06:21;;;;;;;1999.90;999.90;;;2.50;99.90;;;;;;5089626;28;20469;-50
2020/12/12 09:08:47;;;;;;;1999.90;999.90;;;2.50;99.90;;;;;;5088754;28;20487;-50
2020/12/12 09:11:14;;;;;;;1999.90;999.90;;;2.50;99.90;;;;;;5088305;28;20945;-50
2020/12/12 09:13:40;;;;;;;1999.90;999.90;;;2.50;99.90;;;;;;5089735;28;20854;-50
2020/12/12 09:16:10;;;;;;;1999.90;999.90;;;2.50;99.90;;;;;;5087539;28;20416;-51
2020/12/12 09:18:46;;;;;;;1999.90;999.90;;;2.60;99.90;;;;;;5079461;28;20789;-51
2020/12/12 09:21:12;;;;;;;1999.90;999.90;;;2.70;99.90;;;;;;5086213;28;20430;-50
2020/12/12 09:23:38;;;;;;;1999.90;999.90;;;2.80;99.90;;;;;;5084422;28;20497;-50
2020/12/12 09:26:05;;;;;;;1999.90;999.90;;;2.90;99.90;;;;;;5089233;28;20529;-50
2020/12/12 09:28:31;;;;;;;1999.90;999.90;;;3.00;99.90;;;;;;5084581;28;20419;-50
2020/12/12 09:30:56;;;;;;;1999.90;999.90;;;2.90;99.90;;;;;;5084471;28;20446;-50
2020/12/12 09:33:22;;;;;;;1999.90;999.90;;;3.10;99.90;;;;;;5085527;28;20227;-51
2020/12/12 14:02:54;;;;;;;1999.90;999.90;;;3.60;99.90;;;;;;5098414;27;20610;-48
2020/12/12 14:05:20;;;;;;;1999.90;999.90;;;3.60;99.90;;;;;;5082439;28;20949;-49
2020/12/12 14:07:48;;;;;;;1999.90;999.90;;;3.40;99.90;;;;;;5081710;28;20618;-50
2020/12/12 14:24:01;;;;;;;1999.90;999.90;;;3.50;99.90;;;;;;5076019;28;20649;-48
2020/12/12 14:29:11;;;;;;;1999.90;999.90;;;3.50;99.90;;;;;;5080434;28;20242;-50
2020/12/12 14:31:37;;;;;;;1999.90;999.90;;;3.50;99.90;;;;;;5076860;28;20449;-49
2020/12/12 14:34:03;;;;;;;1999.90;999.90;;;3.50;99.90;;;;;;5073743;28;20943;-50
2020/12/12 14:36:29;;;;;;;1999.90;999.90;;;3.50;99.90;;;;;;5076341;28;20582;-48
2020/12/12 14:38:54;;;;;;;1999.90;999.90;;;3.40;99.90;;;;;;5078526;28;20278;-48
2020/12/12 14:41:21;;;;;;;1999.90;999.90;;;3.40;99.90;;;;;;5074714;28;20296;-49
2020/12/12 14:43:47;;;;;;;1999.90;999.90;;;3.40;99.90;;;;;;5076430;28;20219;-48
2020/12/12 14:46:13;;;;;;;1999.90;999.90;;;3.40;99.90;;;;;;5077788;28;20426;-49
2020/12/12 14:48:40;;;;;;;1999.90;999.90;;;3.40;99.90;;;;;;5075938;28;20437;-49
2020/12/12 14:51:06;;;;;;;1999.90;999.90;;;3.30;99.90;;;;;;5072811;28;20218;-49
2020/12/12 14:53:32;;;;;;;1999.90;999.90;;;3.30;99.90;;;;;;5073206;28;21231;-49
2020/12/12 14:55:58;;;;;;;1999.90;999.90;;;3.30;99.90;;;;;;5075684;28;20437;-49
2020/12/12 14:58:23;;;;;;;1999.90;999.90;;;3.30;99.90;;;;;;5074683;28;20196;-49
2020/12/12 15:00:49;;;;;;;1999.90;999.90;;;3.20;99.90;;;;;;5073759;28;20224;-48
2020/12/12 15:03:14;;;;;;;1999.90;999.90;;;3.20;99.90;;;;;;5075216;28;20204;-49
2020/12/12 15:05:40;;;;;;;1999.90;999.90;;;3.20;99.90;;;;;;5076167;28;20230;-48
2020/12/12 15:08:06;;;;;;;1999.90;999.90;;;3.20;99.90;;;;;;5075655;28;20190;-49
2020/12/12 15:10:31;;;;;;;1999.90;999.90;;;3.20;99.90;;;;;;5075858;28;20187;-49
2020/12/12 15:12:58;;;;;;;1999.90;999.90;;;3.20;99.90;;;;;;5066902;28;20206;-49
2020/12/12 15:15:23;;;;;;;1999.90;999.90;;;3.20;99.90;;;;;;5062015;28;20178;-49
2020/12/12 15:17:49;;;;;;;1999.90;999.90;;;3.20;99.90;;;;;;5062170;28;20790;-49
2020/12/12 15:20:15;;;;;;;1999.90;999.90;;;3.30;99.90;;;;;;5062697;28;20180;-50
2020/12/12 15:22:42;;;;;;;1999.90;999.90;;;3.30;99.90;;;;;;5059881;28;20693;-48
2020/12/12 15:25:08;;;;;;;1999.90;999.90;;;3.20;99.90;;;;;;5062424;28;20220;-49
2020/12/12 15:27:34;;;;;;;1999.90;999.90;;;3.20;99.90;;;;;;5062306;28;20537;-50
2020/12/12 15:29:59;;;;;;;1999.90;999.90;;;3.10;99.90;;;;;;5063202;28;20191;-49
2020/12/12 15:32:29;;;;;;;1999.90;999.90;;;3.20;99.90;;;;;;5058210;28;21196;-49
2020/12/12 15:34:56;;;;;;;1999.90;999.90;;;3.20;99.90;;;;;;5061221;28;20235;-50
2020/12/12 15:37:23;;;;;;;1999.90;999.90;;;3.20;99.90;;;;;;5059765;28;20526;-48
2020/12/12 15:39:48;;;;;;;1999.90;999.90;;;3.20;99.90;;;;;;5062153;28;20447;-48
2020/12/12 15:42:14;;;;;;;1999.90;999.90;;;3.20;99.90;;;;;;5062795;28;20471;-48
2020/12/12 15:44:40;;;;;;;1999.90;999.90;;;3.20;99.90;;;;;;5061626;28;20272;-48
2020/12/12 15:47:06;;;;;;;1999.90;999.90;;;3.20;99.90;;;;;;5061278;28;20192;-49
2020/12/12 15:49:32;;;;;;;1999.90;999.90;;;3.10;99.90;;;;;;5066165;28;20173;-49
2020/12/12 15:51:58;;;;;;;1999.90;999.90;;;3.10;99.90;;;;;;5064752;28;20458;-47
2020/12/12 15:54:25;;;;;;;1999.90;999.90;;;3.10;99.90;;;;;;5061580;28;20231;-48
2020/12/12 15:56:50;;;;;;;1999.90;999.90;;;3.00;99.90;;;;;;5061727;28;20191;-49
2020/12/12 15:59:16;;;;;;;1999.90;999.90;;;3.00;99.90;;;;;;5068757;28;20426;-50
2020/12/12 16:01:43;;;;;;;1999.90;999.90;;;3.00;99.90;;;;;;5066109;28;20295;-48
2020/12/12 16:04:09;;;;;;;1999.90;999.90;;;3.10;99.90;;;;;;5057877;28;20191;-49
2020/12/12 16:06:35;;;;;;;1999.90;999.90;;;3.00;99.90;;;;;;5061366;28;20439;-48
2020/12/12 16:09:02;;;;;;;1999.90;999.90;;;3.00;99.90;;;;;;5067638;28;20442;-49
2020/12/12 16:11:27;;;;;;;1999.90;999.90;;;3.10;99.90;;;;;;5063208;28;20451;-48
2020/12/12 16:13:53;;;;;;;1999.90;999.90;;;3.10;99.90;;;;;;5067630;28;20480;-48
2020/12/12 16:16:20;;;;;;;1999.90;999.90;;;3.10;99.90;;;;;;5061025;28;21105;-48
2020/12/12 16:18:46;;;;;;;1999.90;999.90;;;3.10;99.90;;;;;;5061249;28;20540;-49
2020/12/12 16:21:12;;;;;;;1999.90;999.90;;;3.10;99.90;;;;;;5059883;28;20546;-47
2020/12/12 16:23:40;;;;;;;1999.90;999.90;;;3.10;99.90;;;;;;5060820;28;20208;-48
2020/12/12 16:26:09;;;;;;;1999.90;999.90;;;3.00;99.90;;;;;;5060601;28;20435;-47
2020/12/12 16:28:35;;;;;;;1999.90;999.90;;;3.00;99.90;;;;;;5058858;28;20438;-47
2020/12/12 16:31:01;;;;;;;1999.90;999.90;;;3.00;99.90;;;;;;5059393;28;20966;-48
2020/12/12 16:33:27;;;;;;;1999.90;999.90;;;3.00;99.90;;;;;;5061188;28;20525;-48
2020/12/12 16:35:53;;;;;;;1999.90;999.90;;;3.00;99.90;;;;;;5044375;28;20231;-47
2020/12/12 16:38:19;;;;;;;1999.90;999.90;;;3.00;99.90;;;;;;5063522;28;20552;-48
2020/12/12 16:40:45;;;;;;;1999.90;999.90;;;3.10;99.90;;;;;;5062506;28;20446;-48
2020/12/12 16:43:11;;;;;;;1999.90;999.90;;;3.10;99.90;;;;;;5059455;28;20227;-48
2020/12/12 16:45:36;;;;;;;1999.90;999.90;;;3.00;99.90;;;;;;5060513;28;20188;-48
2020/12/12 16:48:03;;;;;;;1999.90;999.90;;;3.00;99.90;;;;;;5059444;28;20266;-48
2020/12/12 16:50:29;;;;;;;1999.90;999.90;;;3.00;99.90;;;;;;5060641;28;20442;-48
2020/12/12 16:52:55;;;;;;;1999.90;999.90;;;3.00;99.90;;;;;;5059933;28;20558;-48
2020/12/12 16:55:21;;;;;;;1999.90;999.90;;;2.90;99.90;;;;;;5062164;28;20553;-48
2020/12/12 16:57:50;;;;;;;1999.90;999.90;;;2.90;99.90;;;;;;5066606;28;20271;-48
2020/12/12 17:00:22;;;;;;;1999.90;999.90;;;3.00;99.90;;;;;;5061130;28;20438;-48
2020/12/12 17:02:48;;;;;;;1999.90;999.90;;;3.00;99.90;;;;;;5060522;28;21099;-48
2020/12/12 17:05:17;;;;;;;1999.90;999.90;;;3.00;99.90;;;;;;5060763;28;21070;-48
2020/12/12 17:07:51;;;;;;;1999.90;999.90;;;3.00;99.90;;;;;;5056843;28;20451;-48
2020/12/12 17:10:20;;;;;;;1999.90;999.90;;;3.00;99.90;;;;;;5059169;28;20998;-48
2020/12/12 17:12:54;;;;;;;1999.90;999.90;;;2.90;99.90;;;;;;5057758;28;20470;-48
2020/12/12 17:15:21;;;;;;;1999.90;999.90;;;2.90;99.90;;;;;;5061482;28;20875;-48
2020/12/12 17:17:48;;;;;;;1999.90;999.90;;;2.90;99.90;;;;;;5065776;28;20514;-48
2020/12/12 17:20:16;;;;;;;1999.90;999.90;;;2.90;99.90;;;;;;5067012;28;20942;-48
2020/12/12 17:22:44;;;;;;;1999.90;999.90;;;2.80;99.90;;;;;;5067457;28;20497;-48
2020/12/12 17:25:10;;;;;;;1999.90;999.90;;;2.80;99.90;;;;;;5067473;28;21326;-47
2020/12/12 17:27:38;;;;;;;1999.90;999.90;;;2.70;99.90;;;;;;5064431;28;20455;-48
2020/12/12 17:30:06;;;;;;;1999.90;999.90;;;2.80;99.90;;;;;;5066691;28;21178;-48
2020/12/12 17:32:33;;;;;;;1999.90;999.90;;;2.80;99.90;;;;;;5064050;28;20778;-48
2020/12/12 17:34:59;;;;;;;1999.90;999.90;;;2.70;99.90;;;;;;5065574;28;20515;-48
2020/12/12 17:37:27;;;;;;;1999.90;999.90;;;2.70;99.90;;;;;;5065144;28;20623;-48
2020/12/12 17:39:53;;;;;;;1999.90;999.90;;;2.70;99.90;;;;;;5065619;28;20450;-48
2020/12/12 17:42:19;;;;;;;1999.90;999.90;;;2.60;99.90;;;;;;5066326;28;20601;-48
2020/12/12 17:44:45;;;;;;;1999.90;999.90;;;2.60;99.90;;;;;;5062667;28;20539;-48
2020/12/12 17:47:11;;;;;;;1999.90;999.90;;;2.50;99.90;;;;;;5066826;28;20185;-48
2020/12/12 17:49:36;;;;;;;1999.90;999.90;;;2.60;99.90;;;;;;5066660;28;20180;-48
2020/12/12 17:52:02;;;;;;;1999.90;999.90;;;2.60;99.90;;;;;;5066458;28;20782;-47
2020/12/12 17:54:28;;;;;;;1999.90;999.90;;;2.50;99.90;;;;;;5064689;28;20193;-48
2020/12/12 17:56:53;;;;;;;1999.90;999.90;;;2.60;99.90;;;;;;5066460;28;20268;-47
2020/12/12 17:59:19;;;;;;;1999.90;999.90;;;2.50;99.90;;;;;;5067769;28;20189;-47
2020/12/12 18:01:45;;;;;;;1999.90;999.90;;;2.60;99.90;;;;;;5064445;28;20219;-48
2020/12/12 18:04:11;;;;;;;1999.90;999.90;;;2.50;99.90;;;;;;5065955;28;20180;-48
2020/12/12 18:06:37;;;;;;;1999.90;999.90;;;2.50;99.90;;;;;;5065557;28;20183;-48
2020/12/12 18:09:04;;;;;;;1999.90;999.90;;;2.50;99.90;;;;;;5065500;28;20450;-48
2020/12/12 18:11:30;;;;;;;1999.90;999.90;;;2.50;99.90;;;;;;5064492;28;20203;-48
2020/12/12 18:13:55;;;;;;;1999.90;999.90;;;2.50;99.90;;;;;;5064813;28;20463;-48
2020/12/12 18:16:23;;;;;;;1999.90;999.90;;;2.50;99.90;;;;;;5067023;28;20186;-48
2020/12/12 18:18:49;;;;;;;1999.90;999.90;;;2.50;99.90;;;;;;5065572;28;20558;-48
2020/12/12 18:21:18;;;;;;;1999.90;999.90;;;2.50;99.90;;;;;;5062065;28;20482;-47
2020/12/12 18:23:44;;;;;;;1999.90;999.90;;;2.50;99.90;;;;;;5065306;28;20477;-47
2020/12/12 18:26:09;;;;;;;1999.90;999.90;;;2.50;99.90;;;;;;5067364;28;20443;-48
2020/12/12 18:28:35;;;;;;;1999.90;999.90;;;2.50;99.90;;;;;;5062526;28;20245;-48
2020/12/12 18:31:01;;;;;;;1999.90;999.90;;;2.50;99.90;;;;;;5057486;28;20231;-48
2020/12/12 18:33:27;;;;;;;1999.90;999.90;;;2.50;99.90;;;;;;5061542;28;20216;-47
2020/12/12 18:35:52;;;;;;;1999.90;999.90;;;2.50;99.90;;;;;;5062216;28;20179;-48
2020/12/12 18:38:18;;;;;;;1999.90;999.90;;;2.60;99.90;;;;;;5059632;28;20223;-48
2020/12/12 18:40:44;;;;;;;1999.90;999.90;;;2.60;99.90;;;;;;5061914;28;20188;-47
2020/12/12 18:43:10;;;;;;;1999.90;999.90;;;2.60;99.90;;;;;;5064835;28;20527;-48
2020/12/12 18:45:39;;;;;;;1999.90;999.90;;;2.60;99.90;;;;;;5062696;28;20213;-48
2020/12/12 18:48:06;;;;;;;1999.90;999.90;;;2.60;99.90;;;;;;5063330;28;20446;-48
2020/12/12 18:50:33;;;;;;;1999.90;999.90;;;2.50;99.90;;;;;;5065151;28;20419;-48
2020/12/12 18:52:59;;;;;;;1999.90;999.90;;;2.50;99.90;;;;;;5062341;28;20465;-49
2020/12/12 18:55:26;;;;;;;1999.90;999.90;;;2.50;99.90;;;;;;5066980;28;20443;-48
2020/12/12 18:57:53;;;;;;;1999.90;999.90;;;2.50;99.90;;;;;;5069150;28;20437;-49
2020/12/12 19:00:20;;;;;;;1999.90;999.90;;;2.50;99.90;;;;;;5068724;28;20439;-49
2020/12/12 19:02:45;;;;;;;1999.90;999.90;;;2.50;99.90;;;;;;5064551;28;20478;-48
2020/12/12 19:05:11;;;;;;;1999.90;999.90;;;2.60;99.90;;;;;;5062515;28;20445;-48
2020/12/12 19:07:38;;;;;;;1999.90;999.90;;;2.60;99.90;;;;;;5060242;28;20283;-49
2020/12/12 19:10:06;;;;;;;1999.90;999.90;;;2.60;99.90;;;;;;5066332;28;20460;-48
2020/12/12 19:12:32;;;;;;;1999.90;999.90;;;2.60;99.90;;;;;;5062818;28;20450;-48
2020/12/12 19:14:58;;;;;;;1999.90;999.90;;;2.60;99.90;;;;;;5062232;28;20436;-48
2020/12/12 19:17:23;;;;;;;1999.90;999.90;;;2.60;99.90;;;;;;5066262;28;20890;-48
2020/12/12 19:19:49;;;;;;;1999.90;999.90;;;2.60;99.90;;;;;;5068134;28;20247;-49
2020/12/12 19:22:16;;;;;;;1999.90;999.90;;;2.60;99.90;;;;;;5068075;28;20902;-48
2020/12/12 19:24:42;;;;;;;1999.90;999.90;;;2.60;99.90;;;;;;5066025;28;20290;-48
2020/12/12 19:27:08;;;;;;;1999.90;999.90;;;2.60;99.90;;;;;;5067001;28;20439;-48
2020/12/12 19:29:34;;;;;;;1999.90;999.90;;;2.60;99.90;;;;;;5060478;28;20606;-48
2020/12/12 19:32:00;;;;;;;1999.90;999.90;;;2.60;99.90;;;;;;5057504;28;20562;-48
2020/12/12 19:34:27;;;;;;;1999.90;999.90;;;2.50;99.90;;;;;;5069357;28;20188;-48
2020/12/12 19:36:53;;;;;;;1999.90;999.90;;;2.60;99.90;;;;;;5068971;28;20447;-48
2020/12/12 19:39:19;;;;;;;1999.90;999.90;;;2.60;99.90;;;;;;5067116;28;20841;-48
2020/12/12 19:41:45;;;;;;;1999.90;999.90;;;2.50;99.90;;;;;;5069469;28;20894;-48
2020/12/12 19:44:11;;;;;;;1999.90;999.90;;;2.50;99.90;;;;;;5067346;28;20435;-48
2020/12/12 19:46:36;;;;;;;1999.90;999.90;;;2.50;99.90;;;;;;5068474;28;20550;-48
2020/12/12 19:49:03;;;;;;;1999.90;999.90;;;2.50;99.90;;;;;;5067317;28;20192;-48
2020/12/12 19:51:29;;;;;;;1999.90;999.90;;;2.50;99.90;;;;;;5068432;28;20268;-48
2020/12/12 19:53:58;;;;;;;1999.90;999.90;;;2.50;99.90;;;;;;5067777;28;20570;-48
2020/12/12 19:56:25;;;;;;;1999.90;999.90;;;2.40;99.90;;;;;;5065656;28;20442;-48
2020/12/12 19:58:50;;;;;;;1999.90;999.90;;;2.50;99.90;;;;;;5067832;28;20500;-48
2020/12/12 20:01:17;;;;;;;1999.90;999.90;;;2.40;99.90;;;;;;5067648;28;20573;-48
2020/12/12 20:03:43;;;;;;;1999.90;999.90;;;2.40;99.90;;;;;;5069295;28;20470;-48
2020/12/12 20:06:10;;;;;;;1999.90;999.90;;;2.40;99.90;;;;;;5066685;28;20467;-48
2020/12/12 20:08:36;;;;;;;1999.90;999.90;;;2.40;99.90;;;;;;5065503;28;20558;-48
2020/12/12 20:11:06;;;;;;;1999.90;999.90;;;2.40;99.90;;;;;;5067978;28;20955;-48
2020/12/12 20:13:32;;;;;;;1999.90;999.90;;;2.40;99.90;;;;;;5067776;28;20494;-48
2020/12/12 20:15:58;;;;;;;1999.90;999.90;;;2.40;99.90;;;;;;5065216;28;21227;-48
2020/12/12 20:18:23;;;;;;;1999.90;999.90;;;2.40;99.90;;;;;;5065444;28;20504;-47
2020/12/12 20:20:49;;;;;;;1999.90;999.90;;;2.40;99.90;;;;;;5063670;28;20197;-48
2020/12/12 20:23:16;;;;;;;1999.90;999.90;;;2.50;99.90;;;;;;5058104;28;20708;-48
2020/12/12 20:25:44;;;;;;;1999.90;999.90;;;2.40;99.90;;;;;;5066095;28;20212;-48
2020/12/12 20:28:11;;;;;;;1999.90;999.90;;;2.40;99.90;;;;;;5065929;28;21150;-48
2020/12/12 20:30:37;;;;;;;1999.90;999.90;;;2.50;99.90;;;;;;5067815;28;20435;-48
2020/12/12 20:33:03;;;;;;;1999.90;999.90;;;2.50;99.90;;;;;;5062902;28;20450;-48
2020/12/12 20:35:30;;;;;;;1999.90;999.90;;;2.40;99.90;;;;;;5067701;28;20185;-48
2020/12/12 20:37:56;;;;;;;1999.90;999.90;;;2.40;99.90;;;;;;5064527;28;20189;-48
2020/12/12 20:40:23;;;;;;;1999.90;999.90;;;2.40;99.90;;;;;;5066843;28;21165;-48
2020/12/12 20:42:55;;;;;;;1999.90;999.90;;;2.40;99.90;;;;;;5065104;28;20590;-48
2020/12/12 20:45:22;;;;;;;1999.90;999.90;;;2.40;99.90;;;;;;5067002;28;20523;-48
2020/12/12 20:47:48;;;;;;;1999.90;999.90;;;2.40;99.90;;;;;;5068587;28;20446;-48
2020/12/12 20:50:15;;;;;;;1999.90;999.90;;;2.50;99.90;;;;;;5065935;28;20473;-48
2020/12/12 20:52:41;;;;;;;1999.90;999.90;;;2.40;99.90;;;;;;5063459;28;20888;-48
2020/12/12 20:55:10;;;;;;;1999.90;999.90;;;2.40;99.90;;;;;;5067927;28;20454;-48
2020/12/12 20:57:42;;;;;;;1999.90;999.90;;;2.30;99.90;;;;;;5065425;28;20943;-48
2020/12/12 21:00:11;;;;;;;1999.90;999.90;;;2.30;99.90;;;;;;5064661;28;20435;-48
2020/12/12 21:02:38;;;;;;;1999.90;999.90;;;2.30;99.90;;;;;;5061206;28;20522;-48
2020/12/12 21:05:05;;;;;;;1999.90;999.90;;;2.40;99.90;;;;;;5066179;28;20500;-48
2020/12/12 21:07:30;;;;;;;1999.90;999.90;;;2.40;99.90;;;;;;5066552;28;20447;-48
2020/12/12 21:09:59;;;;;;;1999.90;999.90;;;2.40;99.90;;;;;;5065580;28;20802;-48
2020/12/12 21:12:27;;;;;;;1999.90;999.90;;;2.40;99.90;;;;;;5061497;28;20209;-48
2020/12/12 21:14:53;;;;;;;1999.90;999.90;;;2.40;99.90;;;;;;5061659;28;20438;-48
2020/12/12 21:17:20;;;;;;;1999.90;999.90;;;2.40;99.90;;;;;;5061428;28;20476;-49
2020/12/12 21:19:45;;;;;;;1999.90;999.90;;;2.40;99.90;;;;;;5062377;28;20467;-48
2020/12/12 21:22:11;;;;;;;1999.90;999.90;;;2.50;99.90;;;;;;5064541;28;20915;-48
2020/12/12 21:24:40;;;;;;;1999.90;999.90;;;2.40;99.90;;;;;;5061753;28;20207;-47
2020/12/12 21:27:06;;;;;;;1999.90;999.90;;;2.40;99.90;;;;;;5063475;28;20565;-47
2020/12/12 21:29:33;;;;;;;1999.90;999.90;;;2.40;99.90;;;;;;5065668;28;20973;-48
2020/12/12 21:32:00;;;;;;;1999.90;999.90;;;2.40;99.90;;;;;;5062304;28;20456;-48
2020/12/12 21:34:28;;;;;;;1999.90;999.90;;;2.40;99.90;;;;;;5058754;28;20878;-49
2020/12/12 21:36:54;;;;;;;1999.90;999.90;;;2.40;99.90;;;;;;5064585;28;20435;-48
2020/12/12 21:39:20;;;;;;;1999.90;999.90;;;2.40;99.90;;;;;;5062051;28;20488;-48
2020/12/12 21:41:46;;;;;;;1999.90;999.90;;;2.40;99.90;;;;;;5063313;28;21128;-48
2020/12/12 21:44:12;;;;;;;1999.90;999.90;;;2.40;99.90;;;;;;5066481;28;21020;-48
2020/12/12 21:46:37;;;;;;;1999.90;999.90;;;2.50;99.90;;;;;;5059911;28;20483;-48
2020/12/12 21:49:03;;;;;;;1999.90;999.90;;;2.40;99.90;;;;;;5066808;28;20181;-48
2020/12/12 21:51:29;;;;;;;1999.90;999.90;;;2.40;99.90;;;;;;5066039;28;20199;-48
2020/12/12 21:53:54;;;;;;;1999.90;999.90;;;2.40;99.90;;;;;;5060265;28;20223;-48
2020/12/12 21:56:20;;;;;;;1999.90;999.90;;;2.40;99.90;;;;;;5065462;28;20183;-48
2020/12/12 21:58:45;;;;;;;1999.90;999.90;;;2.40;99.90;;;;;;5066041;28;20333;-48
2020/12/12 22:01:15;;;;;;;1999.90;999.90;;;2.40;99.90;;;;;;5066062;28;20295;-48
2020/12/12 22:03:41;;;;;;;1999.90;999.90;;;2.40;99.90;;;;;;5065554;28;20240;-48
2020/12/12 22:06:16;;;;;;;1999.90;999.90;;;2.30;99.90;;;;;;5068095;28;20450;-47
2020/12/12 22:08:42;;;;;;;1999.90;999.90;;;2.40;99.90;;;;;;5064256;28;20265;-46
2020/12/12 22:11:07;;;;;;;1999.90;999.90;;;2.40;99.90;;;;;;5068171;28;21188;-46
2020/12/12 22:13:33;;;;;;;1999.90;999.90;;;2.40;99.90;;;;;;5085402;22;20237;-51
2020/12/12 22:15:59;;;;;;;1999.90;999.90;;;2.40;99.90;;;;;;5062533;28;20238;-50
2020/12/12 22:18:24;;;;;;;1999.90;999.90;;;2.40;99.90;;;;;;5051490;28;20300;-51
2020/12/12 22:20:50;;;;;;;1999.90;999.90;;;2.40;99.90;;;;;;5047483;28;20989;-50
2020/12/12 22:23:16;;;;;;;1999.90;999.90;;;2.40;99.90;;;;;;5050316;28;20238;-51